Date,TemperatureHighF,TemperatureAvgF,TemperatureLowF,DewpointHighF,DewpointAvgF,DewpointLowF,HumidityHigh,HumidityAvg,HumidityLow,PressureMaxIn,PressureMinIn,WindSpeedMaxMPH,WindSpeedAvgMPH,GustSpeedMaxMPH,PrecipitationSumIn
2013-1-1,18,11,5,9,3,-6,89,70,51,30.42,30.21,9,1,11,0.00
2013-1-2,26,12,5,3,-2,-6,83,54,29,30.51,30.35,8,1,9,0.00
2013-1-3,29,16,3,3,-9,-19,93,41,12,30.57,30.45,8,1,9,0.00
2013-1-4,39,26,16,6,-3,-16,40,27,21,30.46,30.07,9,1,10,0.03
2013-1-5,41,29,20,6,-1,-8,39,27,16,30.35,30.07,9,1,11,0.00
2013-1-6,46,34,23,2,-4,-14,34,20,11,30.34,29.99,14,2,17,0.00
2013-1-7,43,34,27,9,1,-7,39,25,15,30.00,29.84,8,0,11,0.00
2013-1-8,46,34,28,13,4,-10,45,29,16,30.23,29.80,8,0,11,0.00
2013-1-9,47,37,25,10,4,-4,49,27,15,30.34,30.07,13,1,13,0.00
2013-1-10,45,35,28,16,1,-10,60,26,13,30.07,29.51,17,2,18,0.00
2013-1-11,28,17,2,20,3,-9,77,56,35,29.90,29.22,31,7,37,0.00
2013-1-12,16,5,-4,-7,-12,-19,85,48,22,30.22,29.89,11,2,13,0.00
2013-1-13,10,3,-4,-2,-8,-14,84,62,40,30.37,30.21,17,5,18,0.00
2013-1-14,15,4,-2,4,-3,-8,86,74,49,30.36,30.24,10,1,12,0.00
2013-1-15,22,11,-4,8,-3,-15,81,53,35,30.52,30.32,16,3,16,0.00
2013-1-16,41,29,20,16,13,8,64,52,35,30.50,30.32,10,2,12,0.01
2013-1-17,42,30,20,18,14,9,73,53,34,30.48,30.32,13,2,13,0.00
2013-1-18,47,34,26,14,4,-1,51,30,16,30.33,30.13,8,1,10,0.00
2013-1-19,48,35,26,6,-3,-12,31,20,10,30.30,30.14,9,1,10,0.00
2013-1-20,46,35,23,5,-8,-30,45,19,5,30.21,30.05,9,1,10,0.00
2013-1-21,48,34,23,12,4,-4,42,29,19,30.24,30.12,8,1,8,0.00
2013-1-22,55,39,29,3,-10,-23,22,12,6,30.22,30.10,11,1,17,0.00
2013-1-23,59,45,33,-8,-19,-40,11,6,1,30.21,30.05,7,1,9,0.00
2013-1-24,52,42,35,24,9,-11,62,30,10,30.06,29.83,15,2,18,0.00
2013-1-25,48,38,33,28,25,22,69,59,42,30.08,29.99,11,1,11,0.00
2013-1-26,46,38,33,36,28,19,92,70,51,30.01,29.62,15,2,24,0.08
2013-1-27,50,40,32,30,22,13,79,50,31,29.70,29.59,18,2,20,0.00
2013-1-28,39,32,23,30,21,9,83,65,49,29.65,29.46,25,5,28,0.00
2013-1-29,23,16,9,14,7,-8,88,68,33,30.03,29.50,17,4,17,0.00
2013-1-30,32,17,3,8,0,-9,59,47,32,30.23,30.03,20,2,21,0.00
2013-1-31,42,29,19,11,7,1,58,41,24,30.24,30.14,15,1,17,0.01
2013-2-1,44,31,22,11,7,4,51,37,20,30.22,30.06,19,2,19,0.00
2013-2-2,50,34,22,10,3,-8,47,29,9,30.34,30.20,7,1,8,0.00
2013-2-3,48,36,29,13,1,-17,41,24,7,30.26,29.84,9,1,11,0.00
2013-2-4,50,33,24,5,1,-3,39,27,12,29.97,29.88,12,1,14,0.00
2013-2-5,50,37,27,10,7,2,42,30,16,30.06,29.86,12,1,14,0.00
2013-2-6,52,38,28,27,13,6,92,39,18,29.86,29.67,11,1,12,0.00
2013-2-7,42,30,21,25,16,-6,98,60,15,30.14,29.86,9,1,10,0.03
2013-2-8,41,33,27,18,15,10,67,47,32,30.12,29.69,25,6,30,0.00
2013-2-9,34,26,17,20,11,2,84,53,27,29.70,29.39,26,4,30,0.00
2013-2-10,31,20,14,14,4,-6,85,51,22,30.03,29.53,20,3,25,0.01
2013-2-11,17,12,7,12,8,4,89,83,77,30.24,30.02,20,2,20,0.00
2013-2-12,26,15,7,8,3,0,84,61,39,30.33,30.24,9,2,10,0.00
2013-2-13,39,26,12,15,9,4,69,49,30,30.29,30.10,12,2,14,0.03
2013-2-14,38,24,13,20,11,4,86,60,31,30.27,30.05,11,2,14,0.00
2013-2-15,33,22,11,12,4,-4,87,49,23,30.46,30.25,12,1,16,0.00
2013-2-16,47,31,17,11,4,-2,54,34,18,30.44,30.08,13,1,13,0.00
2013-2-17,46,34,26,4,-4,-14,36,20,9,30.08,29.59,16,2,24,0.00
2013-2-18,35,24,15,14,1,-9,86,41,17,30.15,29.60,12,1,15,0.00
2013-2-19,40,29,19,12,-2,-17,47,27,10,30.15,29.74,15,3,20,0.00
2013-2-20,37,26,16,24,19,12,93,76,45,29.74,29.41,10,1,11,0.00
2013-2-21,33,19,10,22,14,6,93,82,59,29.96,29.52,8,1,8,0.05
2013-2-22,31,20,12,18,12,8,90,74,53,30.04,29.91,9,1,10,0.01
2013-2-23,41,24,10,19,11,1,85,59,36,30.00,29.70,14,2,14,0.00
2013-2-24,26,19,10,19,13,5,91,78,46,30.11,29.62,18,4,19,0.04
2013-2-25,35,21,8,10,6,1,87,55,26,30.22,29.94,10,1,11,0.08
2013-2-26,27,20,13,17,9,1,87,66,36,30.17,29.73,11,1,12,0.00
2013-2-27,33,18,6,14,5,0,86,59,34,30.43,30.17,7,1,8,0.06
2013-2-28,37,22,8,10,3,-4,68,46,28,30.48,30.33,11,2,12,0.01
2013-3-1,41,29,17,17,12,6,66,51,34,30.43,30.31,16,2,18,0.00
2013-3-2,50,37,25,23,16,13,68,45,25,30.41,30.09,9,1,9,0.00
2013-3-3,53,41,34,23,16,7,61,37,22,30.09,29.58,18,2,19,0.00
2013-3-4,46,33,14,29,19,10,92,61,29,30.08,29.56,15,2,22,0.00
2013-3-5,52,32,10,13,1,-14,88,35,6,30.33,30.05,19,2,19,0.00
2013-3-6,53,40,32,18,11,3,41,30,20,30.17,29.79,13,2,17,0.00
2013-3-7,54,43,35,13,8,-1,37,24,12,29.87,29.77,17,2,18,0.00
2013-3-8,48,39,30,26,18,12,77,45,25,29.82,29.47,18,3,21,0.00
2013-3-9,30,25,17,23,19,11,92,79,60,30.04,29.41,10,1,11,0.00
2013-3-10,39,24,9,18,12,4,86,63,38,30.26,30.04,13,2,17,0.44
2013-3-11,48,33,21,20,14,10,65,47,28,30.24,29.94,13,1,13,0.03
2013-3-12,48,35,25,27,19,13,73,53,33,30.22,30.02,10,0,11,0.00
2013-3-13,56,43,33,24,19,13,49,39,26,30.25,30.14,10,1,13,0.00
2013-3-14,60,45,33,21,16,10,45,32,16,30.26,30.09,11,1,11,0.00
2013-3-15,62,49,38,20,14,10,36,25,16,30.11,29.75,18,1,18,0.00
2013-3-16,47,39,32,32,24,16,89,59,32,29.78,29.64,10,1,12,0.00
2013-3-17,48,36,30,34,20,10,90,54,28,29.74,29.51,24,2,24,0.02
2013-3-18,44,33,25,10,4,0,42,30,18,29.96,29.73,20,3,30,0.00
2013-3-19,43,34,25,11,6,-3,53,31,15,30.19,29.90,10,1,16,0.00
2013-3-20,46,34,19,21,10,3,61,37,19,30.20,29.80,13,2,16,0.00
2013-3-21,48,37,28,29,19,7,74,49,28,29.80,29.46,19,2,23,0.02
2013-3-22,43,31,20,20,13,4,87,52,21,29.71,29.56,18,2,23,0.00
2013-3-23,26,15,5,19,10,0,90,80,62,30.27,29.60,14,2,16,0.00
2013-3-24,27,13,-6,11,2,-11,87,65,33,30.36,30.22,11,1,15,0.07
2013-3-25,34,19,3,12,5,-2,87,59,22,30.41,30.33,12,2,13,0.01
2013-3-26,50,34,14,17,11,1,76,41,21,30.39,29.98,15,1,17,0.00
2013-3-27,55,41,32,24,15,6,65,37,18,29.99,29.85,14,1,14,0.00
2013-3-28,56,42,29,24,19,12,69,43,19,30.03,29.91,11,1,12,0.00
2013-3-29,59,45,35,22,18,10,54,36,15,30.02,29.91,12,1,14,0.00
2013-3-30,58,45,36,27,20,13,64,40,20,29.99,29.84,14,1,17,0.00
2013-3-31,61,44,28,30,16,-9,90,46,7,29.99,29.83,12,1,15,0.00
2013-4-1,56,40,28,26,20,10,85,48,23,29.92,29.70,16,2,16,0.00
2013-4-2,47,32,27,28,25,23,92,78,42,30.05,29.83,13,1,15,0.00
2013-4-3,51,35,26,33,26,22,94,72,36,30.16,30.02,11,0,12,0.07
2013-4-4,60,45,32,26,16,7,75,34,13,30.16,29.93,12,1,14,0.00
2013-4-5,59,48,41,26,15,-2,54,29,11,29.93,29.57,21,2,21,0.00
2013-4-6,60,46,33,26,18,-1,62,37,10,29.75,29.66,14,1,16,0.00
2013-4-7,56,44,35,22,18,14,56,37,21,29.71,29.56,19,2,19,0.00
2013-4-8,57,47,41,28,17,13,58,31,19,29.62,29.17,25,5,26,0.00
2013-4-9,41,19,5,30,14,1,89,81,59,30.04,29.23,23,5,27,0.01
2013-4-10,34,17,3,22,11,0,94,78,54,30.26,30.04,10,2,13,0.00
2013-4-11,21,19,17,16,13,8,93,77,60,30.11,29.98,7,2,11,0.00
2013-4-12,50,36,25,25,22,16,86,61,27,29.92,29.79,4,1,17,0.00
2013-4-13,58,44,29,25,17,4,79,39,13,29.91,29.32,30,3,34,0.00
2013-4-14,52,42,32,31,22,15,91,47,25,29.52,29.24,22,3,26,0.04
2013-4-15,54,42,27,27,22,16,85,50,26,29.66,29.43,23,5,27,0.04
2013-4-16,51,34,19,25,20,15,98,62,28,29.75,29.54,22,3,24,0.00
2013-4-17,32,23,11,28,20,9,95,90,79,30.03,29.61,22,3,24,0.08
2013-4-18,28,17,7,16,8,3,90,70,43,30.42,30.02,16,3,20,0.07
2013-4-19,44,30,13,21,11,-1,62,46,29,30.42,30.04,10,1,12,0.00
2013-4-20,49,35,28,29,21,15,83,59,34,30.04,29.82,13,1,14,0.00
2013-4-21,54,41,30,24,19,10,80,45,21,30.06,29.92,14,1,15,0.00
2013-4-22,61,40,17,31,22,11,92,55,17,29.93,29.62,20,3,20,0.00
2013-4-23,21,17,13,16,13,8,91,86,75,30.40,29.85,15,2,16,0.00
2013-4-24,47,28,13,22,16,7,84,62,26,30.42,30.23,10,2,20,0.20
2013-4-25,55,42,30,34,22,11,86,49,23,30.24,29.80,19,3,23,0.03
2013-4-26,52,43,37,32,24,16,70,48,27,30.19,29.86,11,1,11,0.00
2013-4-27,63,48,34,28,18,8,74,35,13,30.18,29.94,12,1,15,0.00
2013-4-28,68,53,39,20,14,10,34,22,12,29.98,29.68,13,1,15,0.00
2013-4-29,71,56,43,23,17,12,38,23,12,29.70,29.45,17,1,18,0.00
2013-4-30,68,57,46,30,17,11,52,21,14,29.48,29.37,19,3,24,0.00
2013-5-1,46,29,19,32,24,11,94,82,52,30.45,29.46,16,2,16,0.00
2013-5-2,41,26,14,19,14,8,92,64,29,30.74,30.45,15,1,16,0.54
2013-5-3,59,40,23,18,11,1,78,34,12,30.53,30.00,10,1,13,0.00
2013-5-4,56,41,29,22,17,14,54,39,22,30.08,29.90,13,1,15,0.00
2013-5-5,43,31,27,19,16,14,60,53,35,30.07,30.03,7,0,8,0.00
2013-5-11,41,41,40,32,31,30,70,69,68,30.23,30.21,2,0,3,0.06
2013-5-12,65,52,40,34,30,26,70,45,25,30.22,30.00,9,1,9,0.00
2013-5-13,70,56,47,43,32,25,61,41,24,30.04,29.90,9,1,11,0.04
2013-5-14,70,55,47,43,35,29,79,48,24,29.91,29.72,11,1,16,0.04
2013-5-15,64,52,46,46,38,32,79,58,33,29.78,29.69,12,0,14,0.03
2013-5-16,72,58,45,36,30,23,69,39,18,29.74,29.61,15,1,18,0.00
2013-5-17,70,59,49,29,16,1,40,20,9,29.67,29.55,17,2,19,0.00
2013-5-18,64,52,40,28,19,5,57,29,14,29.63,29.52,18,2,18,0.00
2013-5-19,57,45,36,28,24,18,64,44,23,29.76,29.59,15,1,19,0.00
2013-5-20,55,43,34,32,26,21,77,53,29,29.90,29.70,15,1,17,0.00
2013-5-21,61,48,35,32,25,17,82,46,21,29.92,29.75,14,1,16,0.00
2013-5-22,70,54,38,31,25,17,64,37,14,29.79,29.62,17,2,17,0.00
2013-5-23,68,52,39,42,36,24,86,59,22,29.78,29.68,18,3,20,0.00
2013-5-24,72,58,40,40,23,11,93,33,11,29.84,29.72,24,3,25,0.00
2013-5-25,73,61,50,25,14,4,32,17,7,29.76,29.60,19,3,22,0.00
2013-5-26,74,62,51,17,10,0,23,13,7,29.67,29.55,15,3,17,0.00
2013-5-27,72,60,51,22,13,6,27,16,8,29.62,29.43,16,1,18,0.00
2013-5-28,68,57,47,19,12,-2,28,17,9,29.54,29.36,17,3,18,0.00
2013-5-29,64,52,43,29,20,10,45,29,17,29.51,29.29,14,2,18,0.00
2013-5-30,65,51,38,21,16,8,47,27,12,29.70,29.50,21,3,24,0.00
2013-5-31,65,52,40,23,13,-9,46,25,5,29.86,29.66,24,2,24,0.00
2013-6-1,68,51,37,30,17,5,60,28,12,30.00,29.85,14,2,17,0.00
2013-6-2,76,57,38,32,24,8,77,36,9,30.00,29.69,16,1,16,0.00
2013-6-3,76,62,54,33,28,23,42,29,15,29.70,29.50,18,3,26,0.00
2013-6-4,76,61,52,33,28,23,39,29,14,29.74,29.60,19,2,27,0.00
2013-6-5,67,52,44,45,42,29,93,69,35,29.87,29.68,16,3,17,0.00
2013-6-6,75,54,39,42,35,22,94,56,14,29.89,29.79,14,1,14,0.00
2013-6-7,72,57,47,40,35,26,75,47,18,29.89,29.67,16,1,19,0.01
2013-6-8,79,61,47,43,35,26,76,40,16,29.69,29.53,13,1,13,0.00
2013-6-9,83,63,45,42,32,22,79,40,11,29.82,29.68,12,1,14,0.00
2013-6-10,89,72,57,31,26,17,35,20,8,29.73,29.50,21,1,22,0.00
2013-6-11,82,71,61,27,16,-7,25,13,4,29.62,29.47,23,4,29,0.00
2013-6-12,82,70,58,23,18,15,19,15,10,29.74,29.62,16,2,22,0.00
2013-6-13,83,68,60,34,26,16,34,21,10,29.71,29.56,18,3,24,0.00
2013-6-14,80,66,54,42,34,26,62,33,16,29.68,29.50,17,2,18,0.01
2013-6-15,80,64,50,41,26,13,66,28,9,29.76,29.61,24,1,27,0.00
2013-6-16,79,61,51,35,31,21,55,34,14,29.82,29.70,19,1,21,0.00
2013-6-17,80,61,50,42,33,20,72,39,11,29.85,29.73,15,1,21,0.00
2013-6-18,76,57,46,46,39,24,89,56,15,29.84,29.66,13,1,17,0.09
2013-6-19,80,63,45,41,19,0,84,30,5,29.72,29.56,21,3,24,0.00
2013-6-20,78,66,55,13,6,0,15,10,5,29.60,29.54,20,3,22,0.00
2013-6-21,80,67,54,16,11,1,17,11,7,29.64,29.52,19,3,19,0.00
2013-6-22,80,66,57,19,14,6,21,14,7,29.59,29.47,17,2,20,0.00
2013-6-23,78,64,53,37,24,11,39,22,8,29.63,29.49,18,2,18,0.00
2013-6-24,77,64,54,28,11,3,28,13,7,29.60,29.50,20,3,21,0.00
2013-6-25,83,68,54,28,18,8,23,15,10,29.67,29.56,11,1,14,0.00
2013-6-26,87,71,54,35,28,13,46,23,7,29.76,29.66,12,1,15,0.00
2013-6-27,88,73,62,47,34,27,57,25,13,29.85,29.71,14,1,16,0.00
2013-6-28,83,66,57,49,41,33,75,43,19,29.93,29.77,19,1,19,0.04
2013-6-29,80,60,52,52,43,36,88,56,22,29.95,29.79,12,1,15,0.13
2013-6-30,76,58,47,52,45,40,94,66,29,29.98,29.82,11,1,13,0.22
2013-7-1,72,57,47,52,45,36,95,69,32,30.02,29.95,15,1,17,0.02
2013-7-2,74,58,46,48,41,30,93,60,24,30.01,29.85,16,1,16,0.01
2013-7-3,77,59,49,45,38,25,75,52,15,29.90,29.72,15,1,18,0.01
2013-7-4,77,63,53,45,38,33,64,42,21,29.75,29.63,11,1,14,0.02
2013-7-5,82,66,55,52,42,37,88,45,20,29.67,29.48,13,1,15,0.07
2013-7-6,80,62,54,53,47,40,91,61,25,29.74,29.55,9,1,12,0.29
2013-7-7,78,63,53,52,47,43,92,61,29,29.80,29.69,13,1,16,0.64
2013-7-8,81,66,53,51,45,35,87,51,22,29.84,29.76,13,1,14,0.01
2013-7-9,81,69,61,44,40,32,53,36,18,29.83,29.73,10,1,11,0.01
2013-7-10,80,66,59,53,45,40,71,49,27,29.82,29.68,15,1,18,0.08
2013-7-11,82,67,49,49,46,39,93,52,23,29.82,29.63,14,2,14,0.00
2013-7-12,82,69,60,48,46,38,58,46,21,29.67,29.54,16,1,20,0.00
2013-7-13,84,68,60,53,47,41,65,49,24,29.73,29.63,14,1,14,0.01
2013-7-14,78,62,54,55,51,46,94,70,35,29.85,29.70,13,1,20,0.34
2013-7-15,61,55,48,57,50,41,97,85,65,29.95,29.80,12,0,12,0.14
2013-7-16,64,54,44,48,43,39,89,70,50,30.08,29.93,10,1,10,0.00
2013-7-17,74,61,46,46,43,39,85,57,33,30.08,29.91,10,1,12,0.00
2013-7-18,80,64,53,50,46,37,86,54,24,29.92,29.69,10,1,16,0.00
2013-7-19,70,57,52,57,48,42,93,74,45,29.90,29.78,9,0,14,0.41
2013-7-20,80,62,50,54,48,43,92,63,28,29.89,29.68,11,1,15,0.01
2013-7-21,81,66,53,52,42,23,93,48,12,29.74,29.61,9,1,13,0.00
2013-7-22,84,70,61,42,36,28,47,31,14,29.68,29.59,13,1,15,0.00
2013-7-23,85,71,61,45,35,22,50,29,11,29.73,29.63,10,1,13,0.00
2013-7-24,75,63,55,56,48,34,85,59,37,29.83,29.68,15,1,20,0.00
2013-7-25,75,61,52,50,47,43,88,63,35,29.95,29.76,15,2,15,0.10
2013-7-26,73,59,50,54,47,42,84,67,43,29.98,29.92,9,1,13,0.05
2013-7-27,78,63,54,49,44,36,77,54,22,29.97,29.70,15,1,19,0.00
2013-7-28,68,58,51,53,50,46,92,76,51,29.73,29.61,10,1,10,0.21
2013-7-29,77,61,51,50,47,41,90,63,29,29.91,29.70,13,1,15,0.00
2013-7-30,79,65,51,48,40,31,86,45,18,29.95,29.88,10,1,13,0.00
2013-7-31,83,67,54,48,39,25,65,40,13,29.95,29.78,17,1,17,0.00
2013-8-1,77,64,54,51,46,40,87,55,28,29.81,29.70,17,1,27,0.04
2013-8-2,83,64,53,50,44,36,86,52,19,29.79,29.65,10,1,14,0.01
2013-8-3,75,63,55,54,48,42,92,61,33,29.88,29.73,8,0,10,0.07
2013-8-4,80,61,50,54,48,37,93,70,22,29.91,29.76,11,1,14,0.46
2013-8-5,80,62,53,53,47,37,91,62,24,29.91,29.76,12,1,14,0.01
2013-8-6,76,59,50,51,46,37,94,66,27,29.82,29.69,10,1,11,0.43
2013-8-7,63,54,48,55,49,44,94,85,63,29.89,29.78,7,0,9,0.16
2013-8-8,64,53,48,49,44,39,87,72,51,29.98,29.80,13,1,16,0.00
2013-8-9,68,55,45,49,44,39,90,68,38,30.04,29.95,14,1,18,0.00
2013-8-10,76,60,48,49,39,30,92,51,20,30.03,29.86,13,1,13,0.00
2013-8-11,74,59,49,46,40,35,76,53,25,29.96,29.82,10,1,14,0.00
2013-8-12,71,58,50,49,44,39,81,62,34,29.96,29.82,13,1,14,0.00
2013-8-13,73,58,44,48,43,34,94,64,24,29.98,29.90,14,1,18,0.00
2013-8-14,75,60,48,50,40,25,87,54,19,29.96,29.85,12,1,15,0.00
2013-8-15,78,64,51,46,36,24,68,41,14,29.91,29.80,11,1,15,0.00
2013-8-16,81,65,55,40,34,23,54,34,13,29.87,29.79,12,1,12,0.00
2013-8-17,83,68,57,39,31,17,46,28,10,29.87,29.71,11,1,13,0.00
2013-8-18,82,65,58,45,38,32,56,38,17,29.84,29.69,11,1,14,0.01
2013-8-19,80,66,55,43,38,26,58,39,15,29.85,29.74,14,1,16,0.00
2013-8-20,80,66,56,43,38,30,58,38,18,29.78,29.67,10,0,12,0.00
2013-8-21,81,65,58,53,42,34,72,45,21,29.81,29.69,11,0,13,0.05
2013-8-22,78,66,56,50,45,41,82,48,31,29.85,29.71,15,2,15,0.01
2013-8-23,80,64,50,51,43,31,93,52,20,29.83,29.65,13,2,16,0.00
2013-8-24,76,64,55,46,43,38,66,48,30,29.81,29.67,14,2,16,0.00
2013-8-25,74,63,55,49,46,42,72,56,33,29.89,29.80,17,2,18,0.00
2013-8-26,82,67,56,49,44,38,72,47,23,29.88,29.73,14,2,14,0.00
2013-8-27,79,66,57,48,45,40,65,47,29,29.78,29.68,13,1,15,0.00
2013-8-28,81,67,56,46,38,28,62,37,22,29.81,29.71,10,1,12,0.00
2013-8-29,80,68,56,42,37,30,55,33,23,29.85,29.76,10,1,11,0.00
2013-8-30,82,69,59,45,40,34,57,36,19,29.85,29.72,13,1,21,0.00
2013-8-31,82,64,56,54,44,35,84,53,23,29.78,29.64,16,1,21,0.09
2013-9-1,74,59,54,58,50,44,95,74,39,29.92,29.77,10,1,13,0.45
2013-9-2,80,62,53,53,49,42,94,66,26,29.90,29.78,11,1,12,0.05
2013-9-3,80,65,58,54,47,43,67,53,31,29.86,29.78,8,0,9,0.01
2013-9-4,76,65,58,51,46,40,70,53,33,29.90,29.83,11,1,13,0.00
2013-9-5,81,68,58,48,40,34,68,38,21,29.92,29.79,13,1,13,0.00
2013-9-6,81,68,58,47,37,34,48,34,21,29.83,29.69,9,1,10,0.00
2013-9-7,81,65,57,51,39,34,64,40,24,29.79,29.68,13,1,13,0.07
2013-9-8,79,66,56,43,40,33,57,40,21,29.75,29.53,13,1,14,0.00
2013-9-9,76,65,55,45,42,39,66,45,27,29.59,29.47,15,2,15,0.00
2013-9-10,68,57,48,51,47,42,91,71,40,29.87,29.58,12,1,16,0.10
2013-9-11,63,54,50,53,50,47,95,87,64,29.95,29.85,7,0,10,0.97
2013-9-12,60,53,49,53,51,48,96,93,74,29.99,29.89,8,0,9,0.65
2013-9-13,58,52,49,51,48,43,96,87,69,29.90,29.74,11,1,12,0.19
2013-9-14,67,54,48,48,45,41,92,72,41,29.80,29.67,9,1,13,0.01
2013-9-15,62,52,47,49,44,40,94,76,54,30.01,29.77,13,1,14,0.30
2013-9-16,69,54,43,51,46,39,97,76,36,30.03,29.88,8,1,11,0.21
2013-9-17,72,59,50,46,43,34,82,58,27,29.91,29.63,13,1,14,0.00
2013-9-18,68,59,48,46,42,35,83,55,32,29.70,29.56,16,3,17,0.02
2013-9-19,69,54,46,46,41,35,87,64,31,29.89,29.65,17,2,20,0.02
2013-9-20,69,54,45,46,43,37,96,71,32,29.90,29.81,10,1,12,0.00
2013-9-21,72,58,47,44,36,32,88,47,23,29.85,29.61,11,1,12,0.00
2013-9-22,64,52,40,49,41,34,91,68,40,29.62,29.32,19,2,21,0.22
2013-9-23,59,47,38,36,30,25,82,54,29,29.98,29.36,15,1,18,0.01
2013-9-24,72,53,38,30,21,7,57,31,10,30.04,29.76,11,1,13,0.00
2013-9-25,67,58,50,30,26,20,38,29,20,29.76,29.38,24,4,27,0.00
2013-9-26,66,58,51,27,20,14,33,24,15,29.48,29.33,25,5,28,0.00
2013-9-27,57,49,33,40,29,17,67,48,31,29.78,29.40,30,6,31,0.00
2013-9-28,66,45,29,19,16,11,55,34,13,30.11,29.78,10,1,13,0.00
2013-9-29,70,54,43,22,18,11,39,26,11,30.09,29.75,11,1,11,0.00
2013-9-30,76,60,48,35,26,16,37,28,20,29.77,29.59,10,1,14,0.00
2013-10-1,68,57,48,32,27,18,42,32,23,29.76,29.65,12,2,15,0.00
2013-10-2,72,56,46,27,18,7,43,24,9,29.76,29.63,11,1,12,0.00
2013-10-3,66,55,46,24,19,13,32,25,15,29.63,29.42,21,4,22,0.00
2013-10-4,51,41,29,28,12,-4,69,32,14,29.99,29.39,19,2,25,0.00
2013-10-5,55,37,22,15,7,-5,59,33,10,30.27,29.97,13,1,13,0.00
2013-10-6,66,48,34,22,11,-1,31,23,17,30.27,30.09,9,1,10,0.00
2013-10-7,74,56,42,21,15,6,33,22,8,30.14,29.78,11,1,11,0.00
2013-10-8,65,54,49,22,18,14,31,25,17,29.78,29.54,16,2,19,0.00
2013-10-9,62,53,45,28,23,18,50,32,19,29.71,29.57,15,2,17,0.00
2013-10-10,55,42,30,35,28,20,96,62,28,29.69,29.39,24,4,27,0.03
2013-10-11,53,41,33,29,23,18,60,50,34,29.99,29.55,24,2,31,0.05
2013-10-12,54,41,32,31,25,14,85,55,22,30.05,29.96,16,2,20,0.00
2013-10-13,59,48,41,39,31,24,91,53,35,30.05,29.75,23,4,23,0.12
2013-10-14,51,42,33,35,23,16,73,49,26,29.96,29.66,22,4,25,0.00
2013-10-15,35,28,25,28,24,21,93,85,71,30.21,29.94,10,1,13,0.00
2013-10-16,42,32,23,33,24,17,93,74,46,30.20,30.07,10,0,13,0.29
2013-10-17,53,37,28,22,14,9,66,41,19,30.12,29.89,11,1,11,0.00
2013-10-18,40,30,22,27,21,13,93,72,43,30.21,29.86,11,1,12,0.06
2013-10-19,56,39,26,22,15,9,55,39,21,30.21,29.93,9,0,11,0.00
2013-10-20,54,40,31,29,19,12,92,45,24,29.94,29.74,9,1,12,0.00
2013-10-21,52,37,25,29,22,8,95,60,21,30.17,29.93,11,1,11,0.00
2013-10-22,61,45,32,24,20,16,60,39,19,30.18,30.03,10,1,10,0.00
2013-10-23,64,48,38,23,18,10,47,33,12,30.03,29.93,10,0,12,0.00
2013-10-24,63,46,36,29,22,14,67,42,15,30.05,29.96,10,1,10,0.00
2013-10-25,58,46,38,33,27,20,78,49,26,30.05,29.91,9,1,11,0.00
2013-10-26,58,44,34,32,27,17,81,55,21,30.18,30.04,7,0,10,0.00
2013-10-27,59,46,38,26,23,18,57,41,22,30.09,29.73,16,1,16,0.00
2013-10-28,54,45,40,28,23,17,56,43,28,29.74,29.63,20,4,26,0.00
2013-10-29,50,42,34,32,21,16,91,44,27,29.78,29.66,34,5,34,0.00
2013-10-30,44,34,27,31,20,12,87,57,34,29.79,29.67,17,3,24,0.01
2013-10-31,50,33,23,18,15,10,68,49,23,29.97,29.78,11,1,11,0.00
2013-11-1,50,35,28,21,16,12,69,48,24,30.22,29.95,12,1,13,0.00
2013-11-2,63,45,28,17,4,-15,60,21,4,30.21,29.75,14,2,20,0.00
2013-11-3,53,44,35,20,15,6,38,31,19,29.76,29.40,23,4,30,0.00
2013-11-4,47,35,25,24,16,5,88,49,29,29.79,29.60,15,2,16,0.00
2013-11-5,36,26,15,31,23,11,94,88,75,30.21,29.72,8,0,9,0.14
2013-11-6,42,28,14,22,13,4,83,53,34,30.48,30.21,10,1,10,0.16
2013-11-7,55,40,29,20,15,10,52,37,22,30.46,30.03,10,1,10,0.00
2013-11-8,58,46,37,15,11,8,34,25,15,30.03,29.76,25,2,26,0.00
2013-11-9,59,45,36,19,16,10,47,32,15,30.08,29.87,9,1,10,0.00
2013-11-10,60,46,36,22,16,13,44,31,16,30.12,30.04,11,0,11,0.00
2013-11-11,57,43,31,17,14,10,54,31,15,30.32,30.06,8,0,8,0.00
2013-11-12,54,36,19,28,18,9,94,54,18,30.50,30.32,10,1,10,0.00
2013-11-13,57,44,36,14,11,8,35,27,15,30.43,29.91,7,0,10,0.00
2013-11-14,51,41,35,23,18,10,57,41,21,29.92,29.69,8,1,10,0.00
2013-11-15,45,38,32,31,20,7,93,53,31,29.69,29.42,22,4,25,0.00
2013-11-16,40,35,29,30,21,14,93,60,37,29.49,29.33,31,4,31,0.14
2013-11-17,49,38,28,25,17,13,85,44,27,30.01,29.48,17,2,22,0.00
2013-11-18,57,40,28,17,8,1,52,29,11,30.12,29.97,7,0,8,0.00
2013-11-19,54,41,34,21,14,3,52,34,20,29.97,29.65,12,1,13,0.00
2013-11-20,48,38,32,26,20,16,67,49,31,29.75,29.65,10,1,13,0.00
2013-11-21,36,26,10,29,21,6,92,83,65,30.40,29.75,9,1,13,0.01
2013-11-22,23,19,10,20,16,6,92,88,83,30.70,30.39,2,0,2,0.00
2013-11-23,26,20,14,21,18,12,100,88,79,30.69,30.40,5,0,5,0.00
2013-11-24,36,26,17,29,23,15,100,88,70,30.41,29.94,7,0,10,0.11
2013-11-25,30,24,21,27,22,19,93,90,86,30.36,29.93,14,2,16,0.05
2013-11-26,38,27,22,24,19,16,85,72,52,30.47,30.36,7,1,9,0.35
2013-11-27,51,35,23,24,17,13,74,49,26,30.36,30.11,8,0,8,0.16
2013-11-28,48,36,30,16,13,9,48,38,25,30.13,30.04,9,1,10,0.00
2013-11-29,48,36,29,14,10,5,49,35,20,30.19,30.10,9,0,10,0.00
2013-11-30,46,36,29,16,9,4,44,34,23,30.19,30.10,6,0,8,0.00
2013-12-1,47,35,27,18,12,8,53,39,24,30.16,29.92,9,0,11,0.00
2013-12-2,48,38,31,20,17,11,58,42,29,29.95,29.55,23,1,23,0.00
2013-12-3,42,36,33,24,19,12,67,50,36,29.56,29.33,18,3,26,0.00
2013-12-4,33,17,-5,100,25,-4,86,74,56,29.93,29.25,32,6,37,0.00
2013-12-5,19,7,-8,100,22,-5,86,72,55,30.19,29.92,12,2,15,0.00
2013-12-6,19,12,-10,100,11,-5,84,57,45,30.34,30.14,14,3,16,0.00
2013-12-7,25,18,12,14,6,-4,84,59,37,30.30,29.69,20,4,22,0.00
2013-12-8,21,15,6,13,0,-10,80,52,27,30.00,29.60,15,2,18,0.00
2013-12-9,14,7,0,-8,-11,-16,60,43,29,30.52,30.00,14,2,14,0.00
2013-12-10,38,25,10,7,-1,-17,44,32,21,30.55,30.19,13,1,17,0.00
2013-12-11,43,27,10,10,3,-7,69,36,18,30.43,30.21,10,0,11,0.00
2013-12-12,50,36,27,10,-3,-10,24,18,10,30.42,29.88,8,1,8,0.00
2013-12-13,43,32,20,11,7,0,62,37,23,30.02,29.72,8,1,13,0.00
2013-12-14,36,24,14,14,8,3,92,52,26,30.39,30.02,9,0,10,0.00
2013-12-15,47,32,23,19,11,6,61,43,22,30.36,30.24,11,1,14,0.00
2013-12-16,50,38,30,18,11,5,44,32,23,30.24,30.10,9,0,9,0.00
2013-12-17,52,40,30,19,9,0,34,27,17,30.29,30.08,6,0,6,0.00
2013-12-18,53,43,37,15,8,1,36,23,14,30.08,29.59,17,1,22,0.00
2013-12-19,44,38,28,18,14,10,60,38,26,29.59,29.39,15,2,25,0.00
2013-12-20,35,29,24,21,17,14,70,61,48,29.62,29.54,16,2,19,0.00
2013-12-21,33,24,15,16,12,7,86,63,35,29.83,29.45,9,1,10,0.00
2013-12-22,30,19,9,13,7,2,95,62,36,30.28,29.83,8,0,8,0.08
2013-12-23,35,26,16,14,8,2,58,46,31,30.41,30.27,7,1,7,0.00
2013-12-24,42,31,16,20,16,11,87,56,40,30.32,30.00,25,2,28,0.00
2013-12-25,37,25,14,12,1,-3,83,36,21,30.45,30.20,8,1,8,0.00
2013-12-26,45,32,26,13,6,-1,47,32,25,30.40,30.22,14,1,14,0.00
2013-12-27,49,36,27,20,14,10,51,41,26,30.30,30.05,7,0,7,0.00
2013-12-28,45,34,20,20,15,7,89,47,32,30.05,29.74,23,1,23,0.00
2013-12-29,29,22,15,18,13,3,96,69,38,30.15,29.89,6,1,8,0.61
2013-12-30,38,29,24,14,8,3,50,41,30,30.28,30.12,8,1,8,0.00
2013-12-31,44,35,29,19,12,4,61,39,28,30.21,29.88,10,1,14,0.00
2014-1-1,37,28,15,24,15,5,90,60,30,30.23,29.81,18,1,18,0.03
2014-1-2,45,31,15,13,8,2,88,41,18,30.35,30.10,7,0,9,0.00